sensor_id;sensor_type;location;lat;lon;timestamp;pressure;altitude;pressure_sealevel;temperature;humidity
65329;BME280;51941;52.210;5.158;2024-03-29T00:01:51;98951.19;;;8.27;61.10
65329;BME280;51941;52.210;5.158;2024-03-29T00:04:17;98951.38;;;8.09;61.80
65329;BME280;51941;52.210;5.158;2024-03-29T00:06:43;98955.94;;;8.12;61.64
65329;BME280;51941;52.210;5.158;2024-03-29T00:09:10;98950.94;;;8.15;61.47
65329;BME280;51941;52.210;5.158;2024-03-29T00:11:37;98961.25;;;8.16;61.32
65329;BME280;51941;52.210;5.158;2024-03-29T00:14:03;98954.44;;;8.11;61.43
65329;BME280;51941;52.210;5.158;2024-03-29T00:16:29;98958.25;;;8.10;61.69
65329;BME280;51941;52.210;5.158;2024-03-29T00:18:55;98950.69;;;8.02;62.01
65329;BME280;51941;52.210;5.158;2024-03-29T00:21:21;98951.78;;;8.08;61.52
65329;BME280;51941;52.210;5.158;2024-03-29T00:23:47;98955.25;;;8.05;61.76
65329;BME280;51941;52.210;5.158;2024-03-29T00:26:13;98953.72;;;8.07;61.43
65329;BME280;51941;52.210;5.158;2024-03-29T00:28:40;98958.28;;;8.07;61.51
65329;BME280;51941;52.210;5.158;2024-03-29T00:31:08;98955.66;;;8.03;61.58
65329;BME280;51941;52.210;5.158;2024-03-29T00:33:34;98957.69;;;7.92;62.19
65329;BME280;51941;52.210;5.158;2024-03-29T00:36:00;98959.50;;;8.02;61.73
65329;BME280;51941;52.210;5.158;2024-03-29T00:38:26;98959.97;;;7.94;62.01
65329;BME280;51941;52.210;5.158;2024-03-29T00:40:52;98966.41;;;8.00;61.74
65329;BME280;51941;52.210;5.158;2024-03-29T00:43:18;98966.78;;;8.02;61.69
65329;BME280;51941;52.210;5.158;2024-03-29T00:45:45;98973.66;;;8.03;61.68
65329;BME280;51941;52.210;5.158;2024-03-29T00:48:11;98976.41;;;7.96;61.89
65329;BME280;51941;52.210;5.158;2024-03-29T00:50:36;98979.09;;;7.96;61.66
65329;BME280;51941;52.210;5.158;2024-03-29T00:53:04;98972.91;;;8.02;61.51
65329;BME280;51941;52.210;5.158;2024-03-29T00:55:30;98977.50;;;8.02;61.44
65329;BME280;51941;52.210;5.158;2024-03-29T00:57:56;98977.88;;;8.04;61.10
65329;BME280;51941;52.210;5.158;2024-03-29T01:00:22;98979.44;;;8.01;61.24
65329;BME280;51941;52.210;5.158;2024-03-29T01:02:49;98977.16;;;7.96;61.56
65329;BME280;51941;52.210;5.158;2024-03-29T01:05:15;98984.88;;;7.90;61.51
65329;BME280;51941;52.210;5.158;2024-03-29T01:07:41;98990.63;;;7.89;61.72
65329;BME280;51941;52.210;5.158;2024-03-29T01:10:08;98986.81;;;7.90;61.80
65329;BME280;51941;52.210;5.158;2024-03-29T01:12:34;98986.09;;;7.82;61.88
65329;BME280;51941;52.210;5.158;2024-03-29T01:15:00;98988.09;;;7.71;62.41
65329;BME280;51941;52.210;5.158;2024-03-29T01:17:26;98982.31;;;7.80;62.02
65329;BME280;51941;52.210;5.158;2024-03-29T01:19:57;98982.72;;;7.75;62.30
65329;BME280;51941;52.210;5.158;2024-03-29T01:22:23;98982.75;;;7.71;62.34
65329;BME280;51941;52.210;5.158;2024-03-29T01:24:49;98980.41;;;7.77;62.22
65329;BME280;51941;52.210;5.158;2024-03-29T01:27:15;98972.84;;;7.68;62.41
65329;BME280;51941;52.210;5.158;2024-03-29T01:29:41;98981.56;;;7.76;62.12
65329;BME280;51941;52.210;5.158;2024-03-29T01:32:07;98979.28;;;7.74;62.57
65329;BME280;51941;52.210;5.158;2024-03-29T01:34:33;98974.69;;;7.75;62.36
65329;BME280;51941;52.210;5.158;2024-03-29T01:37:00;98970.53;;;7.66;62.93
65329;BME280;51941;52.210;5.158;2024-03-29T01:39:26;98984.31;;;7.65;62.69
65329;BME280;51941;52.210;5.158;2024-03-29T01:41:52;98978.94;;;7.68;62.84
65329;BME280;51941;52.210;5.158;2024-03-29T01:44:19;98965.59;;;7.61;62.89
65329;BME280;51941;52.210;5.158;2024-03-29T01:46:46;98960.97;;;7.65;62.50
65329;BME280;51941;52.210;5.158;2024-03-29T01:49:13;98956.44;;;7.59;63.03
65329;BME280;51941;52.210;5.158;2024-03-29T01:51:42;98946.88;;;7.58;63.15
65329;BME280;51941;52.210;5.158;2024-03-29T01:54:11;98940.69;;;7.64;62.92
65329;BME280;51941;52.210;5.158;2024-03-29T01:56:39;98931.19;;;7.60;62.91
65329;BME280;51941;52.210;5.158;2024-03-29T01:59:11;98935.75;;;7.59;63.23
65329;BME280;51941;52.210;5.158;2024-03-29T02:01:40;98931.59;;;7.55;63.59
65329;BME280;51941;52.210;5.158;2024-03-29T02:04:08;98936.94;;;7.58;63.26
65329;BME280;51941;52.210;5.158;2024-03-29T02:06:35;98940.75;;;7.57;63.31
65329;BME280;51941;52.210;5.158;2024-03-29T02:09:03;98949.97;;;7.56;63.30
65329;BME280;51941;52.210;5.158;2024-03-29T02:11:31;98945.00;;;7.55;62.96
65329;BME280;51941;52.210;5.158;2024-03-29T02:13:58;98954.88;;;7.61;62.89
65329;BME280;51941;52.210;5.158;2024-03-29T02:16:25;98941.19;;;7.52;63.24
65329;BME280;51941;52.210;5.158;2024-03-29T02:18:52;98955.38;;;7.49;63.34
65329;BME280;51941;52.210;5.158;2024-03-29T02:21:18;98963.41;;;7.45;63.61
65329;BME280;51941;52.210;5.158;2024-03-29T02:23:47;98959.25;;;7.44;63.62
65329;BME280;51941;52.210;5.158;2024-03-29T02:26:17;98958.06;;;7.45;63.60
65329;BME280;51941;52.210;5.158;2024-03-29T02:28:44;98963.44;;;7.42;63.75
65329;BME280;51941;52.210;5.158;2024-03-29T02:31:11;98956.94;;;7.39;63.53
65329;BME280;51941;52.210;5.158;2024-03-29T02:33:38;98968.78;;;7.45;63.58
65329;BME280;51941;52.210;5.158;2024-03-29T02:36:05;98973.34;;;7.48;63.51
65329;BME280;51941;52.210;5.158;2024-03-29T02:38:32;98976.78;;;7.52;63.01
65329;BME280;51941;52.210;5.158;2024-03-29T02:40:58;98979.84;;;7.47;63.57
65329;BME280;51941;52.210;5.158;2024-03-29T02:43:27;98974.16;;;7.42;63.44
65329;BME280;51941;52.210;5.158;2024-03-29T02:45:54;98973.34;;;7.48;63.34
65329;BME280;51941;52.210;5.158;2024-03-29T02:48:21;98978.75;;;7.45;63.51
65329;BME280;51941;52.210;5.158;2024-03-29T02:50:46;98982.97;;;7.42;63.47
65329;BME280;51941;52.210;5.158;2024-03-29T02:53:13;98976.50;;;7.32;63.80
65329;BME280;51941;52.210;5.158;2024-03-29T02:55:41;98979.94;;;7.33;63.95
65329;BME280;51941;52.210;5.158;2024-03-29T02:58:07;98992.16;;;7.41;63.46
65329;BME280;51941;52.210;5.158;2024-03-29T03:00:35;98987.94;;;7.40;63.73
65329;BME280;51941;52.210;5.158;2024-03-29T03:03:00;98982.19;;;7.42;63.40
65329;BME280;51941;52.210;5.158;2024-03-29T03:05:27;98983.72;;;7.39;63.57
65329;BME280;51941;52.210;5.158;2024-03-29T03:07:54;98988.34;;;7.42;63.47
65329;BME280;51941;52.210;5.158;2024-03-29T03:10:44;98978.75;;;7.41;63.75
65329;BME280;51941;52.210;5.158;2024-03-29T03:13:26;98972.22;;;7.46;63.42
65329;BME280;51941;52.210;5.158;2024-03-29T03:15:54;98987.16;;;7.40;63.64
65329;BME280;51941;52.210;5.158;2024-03-29T03:18:21;98994.06;;;7.37;63.67
65329;BME280;51941;52.210;5.158;2024-03-29T03:20:51;98991.00;;;7.42;63.62
65329;BME280;51941;52.210;5.158;2024-03-29T03:23:17;99000.16;;;7.48;63.54
65329;BME280;51941;52.210;5.158;2024-03-29T03:25:45;98998.97;;;7.53;63.37
65329;BME280;51941;52.210;5.158;2024-03-29T03:28:10;98994.03;;;7.48;63.25
65329;BME280;51941;52.210;5.158;2024-03-29T03:30:39;99005.81;;;7.58;63.20
65329;BME280;51941;52.210;5.158;2024-03-29T03:33:06;99003.19;;;7.54;63.22
65329;BME280;51941;52.210;5.158;2024-03-29T03:35:33;99001.94;;;7.66;62.64
65329;BME280;51941;52.210;5.158;2024-03-29T03:37:59;98997.69;;;7.68;62.57
65329;BME280;51941;52.210;5.158;2024-03-29T03:40:25;99006.13;;;7.67;62.58
65329;BME280;51941;52.210;5.158;2024-03-29T03:42:51;99003.84;;;7.65;62.68
65329;BME280;51941;52.210;5.158;2024-03-29T03:45:18;99004.97;;;7.71;62.50
65329;BME280;51941;52.210;5.158;2024-03-29T03:47:44;99001.88;;;7.69;62.43
65329;BME280;51941;52.210;5.158;2024-03-29T03:50:14;99005.72;;;7.72;62.02
65329;BME280;51941;52.210;5.158;2024-03-29T03:52:40;99003.44;;;7.67;62.38
65329;BME280;51941;52.210;5.158;2024-03-29T03:55:07;99002.31;;;7.68;62.47
65329;BME280;51941;52.210;5.158;2024-03-29T03:57:33;98995.88;;;7.58;62.45
65329;BME280;51941;52.210;5.158;2024-03-29T04:00:00;99001.94;;;7.66;62.56
65329;BME280;51941;52.210;5.158;2024-03-29T04:02:26;99004.31;;;7.53;62.49
65329;BME280;51941;52.210;5.158;2024-03-29T04:04:53;98998.09;;;7.67;62.57
65329;BME280;51941;52.210;5.158;2024-03-29T04:07:20;99006.84;;;7.71;62.42
65329;BME280;51941;52.210;5.158;2024-03-29T04:09:50;99011.44;;;7.74;62.40
65329;BME280;51941;52.210;5.158;2024-03-29T04:12:16;99014.47;;;7.80;61.89
65329;BME280;51941;52.210;5.158;2024-03-29T04:14:43;99019.81;;;7.80;62.14
65329;BME280;51941;52.210;5.158;2024-03-29T04:17:08;99007.50;;;7.86;62.04
65329;BME280;51941;52.210;5.158;2024-03-29T04:19:35;99009.81;;;7.87;62.06
65329;BME280;51941;52.210;5.158;2024-03-29T04:22:01;99008.38;;;7.76;62.50
65329;BME280;51941;52.210;5.158;2024-03-29T04:24:29;98999.88;;;7.84;62.20
65329;BME280;51941;52.210;5.158;2024-03-29T04:26:55;99008.38;;;7.76;62.37
65329;BME280;51941;52.210;5.158;2024-03-29T04:29:22;99008.31;;;7.79;62.38
65329;BME280;51941;52.210;5.158;2024-03-29T04:31:48;99023.22;;;7.87;62.52
65329;BME280;51941;52.210;5.158;2024-03-29T04:34:14;99006.69;;;7.92;62.16
65329;BME280;51941;52.210;5.158;2024-03-29T04:36:40;99002.84;;;7.94;62.18
65329;BME280;51941;52.210;5.158;2024-03-29T04:39:07;99007.06;;;7.91;62.52
65329;BME280;51941;52.210;5.158;2024-03-29T04:41:35;99008.22;;;7.94;62.52
65329;BME280;51941;52.210;5.158;2024-03-29T04:44:02;99010.44;;;7.99;62.24
65329;BME280;51941;52.210;5.158;2024-03-29T04:46:29;98998.94;;;8.02;62.15
65329;BME280;51941;52.210;5.158;2024-03-29T04:48:57;98993.97;;;8.00;62.55
65329;BME280;51941;52.210;5.158;2024-03-29T04:51:24;99002.91;;;7.86;62.86
65329;BME280;51941;52.210;5.158;2024-03-29T04:53:50;99007.13;;;7.87;63.01
65329;BME280;51941;52.210;5.158;2024-03-29T04:56:17;99010.44;;;7.99;62.78
65329;BME280;51941;52.210;5.158;2024-03-29T04:58:45;99001.94;;;8.11;62.51
65329;BME280;51941;52.210;5.158;2024-03-29T05:01:12;99017.56;;;8.16;62.29
65329;BME280;51941;52.210;5.158;2024-03-29T05:03:39;99015.63;;;8.20;62.51
65329;BME280;51941;52.210;5.158;2024-03-29T05:06:06;99035.19;;;8.21;62.67
65329;BME280;51941;52.210;5.158;2024-03-29T05:08:33;99023.31;;;8.18;62.72
65329;BME280;51941;52.210;5.158;2024-03-29T05:10:59;99040.53;;;8.21;63.00
65329;BME280;51941;52.210;5.158;2024-03-29T05:13:26;99027.88;;;8.21;63.10
65329;BME280;51941;52.210;5.158;2024-03-29T05:15:54;99038.59;;;8.25;63.12
65329;BME280;51941;52.210;5.158;2024-03-29T05:18:21;99032.53;;;8.17;63.50
65329;BME280;51941;52.210;5.158;2024-03-29T05:20:48;99034.47;;;8.13;63.64
65329;BME280;51941;52.210;5.158;2024-03-29T05:23:16;99036.72;;;8.18;63.50
65329;BME280;51941;52.210;5.158;2024-03-29T05:25:43;99028.69;;;8.15;63.88
65329;BME280;51941;52.210;5.158;2024-03-29T05:28:10;99021.50;;;8.08;63.95
65329;BME280;51941;52.210;5.158;2024-03-29T05:30:37;99045.22;;;8.13;63.98
65329;BME280;51941;52.210;5.158;2024-03-29T05:33:06;99053.97;;;8.17;64.25
65329;BME280;51941;52.210;5.158;2024-03-29T05:35:35;99039.47;;;8.11;64.60
65329;BME280;51941;52.210;5.158;2024-03-29T05:38:02;99047.47;;;8.15;64.75
65329;BME280;51941;52.210;5.158;2024-03-29T05:40:29;99041.72;;;8.16;65.25
65329;BME280;51941;52.210;5.158;2024-03-29T05:42:58;99051.00;;;8.04;66.04
65329;BME280;51941;52.210;5.158;2024-03-29T05:45:26;99054.44;;;8.05;66.91
65329;BME280;51941;52.210;5.158;2024-03-29T05:47:54;99057.22;;;7.98;67.59
65329;BME280;51941;52.210;5.158;2024-03-29T05:50:23;99063.00;;;7.89;68.52
65329;BME280;51941;52.210;5.158;2024-03-29T05:52:51;99062.22;;;7.92;68.67
65329;BME280;51941;52.210;5.158;2024-03-29T05:55:18;99060.28;;;7.92;69.27
65329;BME280;51941;52.210;5.158;2024-03-29T05:57:45;99061.47;;;7.91;69.90
65329;BME280;51941;52.210;5.158;2024-03-29T06:00:14;99068.72;;;7.91;70.26
65329;BME280;51941;52.210;5.158;2024-03-29T06:02:41;99062.34;;;7.78;71.24
65329;BME280;51941;52.210;5.158;2024-03-29T06:05:10;99061.06;;;7.93;69.71
65329;BME280;51941;52.210;5.158;2024-03-29T06:07:38;99072.56;;;7.90;71.18
65329;BME280;51941;52.210;5.158;2024-03-29T06:10:06;99086.41;;;7.81;72.27
65329;BME280;51941;52.210;5.158;2024-03-29T06:12:34;99083.06;;;7.66;73.55
65329;BME280;51941;52.210;5.158;2024-03-29T06:15:01;99092.94;;;7.80;72.79
65329;BME280;51941;52.210;5.158;2024-03-29T06:17:45;99093.41;;;7.71;73.52
65329;BME280;51941;52.210;5.158;2024-03-29T06:20:15;99093.03;;;7.66;74.39
65329;BME280;51941;52.210;5.158;2024-03-29T06:22:44;99090.72;;;7.71;74.21
65329;BME280;51941;52.210;5.158;2024-03-29T06:25:10;99086.47;;;7.74;74.19
65329;BME280;51941;52.210;5.158;2024-03-29T06:27:37;99076.84;;;7.80;74.68
65329;BME280;51941;52.210;5.158;2024-03-29T06:30:05;99090.28;;;7.77;73.96
65329;BME280;51941;52.210;5.158;2024-03-29T06:32:33;99098.44;;;7.55;76.25
65329;BME280;51941;52.210;5.158;2024-03-29T06:34:59;99103.81;;;7.55;76.32
65329;BME280;51941;52.210;5.158;2024-03-29T06:37:26;99101.19;;;7.48;76.90
65329;BME280;51941;52.210;5.158;2024-03-29T06:39:55;99094.50;;;7.74;75.05
65329;BME280;51941;52.210;5.158;2024-03-29T06:42:21;99102.97;;;7.65;76.10
65329;BME280;51941;52.210;5.158;2024-03-29T06:44:48;99100.63;;;7.78;75.94
65329;BME280;51941;52.210;5.158;2024-03-29T06:47:15;99104.00;;;7.86;76.01
65329;BME280;51941;52.210;5.158;2024-03-29T06:49:42;99095.78;;;8.11;74.99
65329;BME280;51941;52.210;5.158;2024-03-29T06:52:09;99096.88;;;8.17;74.60
65329;BME280;51941;52.210;5.158;2024-03-29T06:54:36;99079.41;;;8.43;73.82
65329;BME280;51941;52.210;5.158;2024-03-29T06:57:04;99083.72;;;8.71;72.71
65329;BME280;51941;52.210;5.158;2024-03-29T06:59:30;99089.16;;;8.99;71.40
65329;BME280;51941;52.210;5.158;2024-03-29T07:01:56;99075.72;;;9.02;71.26
65329;BME280;51941;52.210;5.158;2024-03-29T07:04:23;99086.22;;;9.20;70.07
65329;BME280;51941;52.210;5.158;2024-03-29T07:06:51;99092.00;;;9.19;70.78
65329;BME280;51941;52.210;5.158;2024-03-29T07:09:18;99099.38;;;8.77;71.70
65329;BME280;51941;52.210;5.158;2024-03-29T07:11:46;99084.78;;;9.12;70.83
65329;BME280;51941;52.210;5.158;2024-03-29T07:14:14;99101.31;;;8.76;71.24
65329;BME280;51941;52.210;5.158;2024-03-29T07:16:41;99091.78;;;9.06;71.08
65329;BME280;51941;52.210;5.158;2024-03-29T07:19:07;99099.13;;;9.33;70.54
65329;BME280;51941;52.210;5.158;2024-03-29T07:21:34;99099.78;;;9.44;69.60
65329;BME280;51941;52.210;5.158;2024-03-29T07:24:01;99099.78;;;9.71;68.06
65329;BME280;51941;52.210;5.158;2024-03-29T07:26:27;99098.25;;;9.97;67.43
65329;BME280;51941;52.210;5.158;2024-03-29T07:28:54;99099.59;;;10.76;66.79
65329;BME280;51941;52.210;5.158;2024-03-29T07:31:22;99091.13;;;11.71;62.54
65329;BME280;51941;52.210;5.158;2024-03-29T07:33:49;99105.66;;;11.93;61.67
65329;BME280;51941;52.210;5.158;2024-03-29T07:36:16;99112.34;;;12.67;60.12
65329;BME280;51941;52.210;5.158;2024-03-29T07:38:43;99118.91;;;12.37;60.76
65329;BME280;51941;52.210;5.158;2024-03-29T07:41:10;99117.22;;;11.94;61.50
65329;BME280;51941;52.210;5.158;2024-03-29T07:43:38;99120.38;;;11.56;61.65
65329;BME280;51941;52.210;5.158;2024-03-29T07:46:05;99130.50;;;11.32;62.69
65329;BME280;51941;52.210;5.158;2024-03-29T07:48:35;99132.72;;;10.53;63.98
65329;BME280;51941;52.210;5.158;2024-03-29T07:51:02;99130.66;;;11.24;62.28
65329;BME280;51941;52.210;5.158;2024-03-29T07:53:29;99140.94;;;12.35;61.25
65329;BME280;51941;52.210;5.158;2024-03-29T07:55:56;99131.28;;;13.38;58.41
65329;BME280;51941;52.210;5.158;2024-03-29T07:58:23;99124.13;;;14.09;56.58
65329;BME280;51941;52.210;5.158;2024-03-29T08:00:52;99122.56;;;14.81;54.88
65329;BME280;51941;52.210;5.158;2024-03-29T08:03:19;99114.31;;;14.84;51.46
65329;BME280;51941;52.210;5.158;2024-03-29T08:05:58;99120.28;;;15.55;49.96
65329;BME280;51941;52.210;5.158;2024-03-29T08:08:25;99112.47;;;15.03;50.93
65329;BME280;51941;52.210;5.158;2024-03-29T08:10:52;99106.56;;;14.96;50.68
65329;BME280;51941;52.210;5.158;2024-03-29T08:13:19;99097.06;;;15.54;50.82
65329;BME280;51941;52.210;5.158;2024-03-29T08:15:48;99097.59;;;15.80;49.45
65329;BME280;51941;52.210;5.158;2024-03-29T08:18:14;99101.91;;;15.68;49.67
65329;BME280;51941;52.210;5.158;2024-03-29T08:20:41;99115.56;;;15.46;49.46
65329;BME280;51941;52.210;5.158;2024-03-29T08:23:10;99128.69;;;15.48;49.86
65329;BME280;51941;52.210;5.158;2024-03-29T08:25:37;99133.31;;;14.24;52.03
65329;BME280;51941;52.210;5.158;2024-03-29T08:28:04;99125.31;;;13.43;54.53
65329;BME280;51941;52.210;5.158;2024-03-29T08:30:31;99125.00;;;12.99;55.79
65329;BME280;51941;52.210;5.158;2024-03-29T08:33:01;99116.38;;;12.46;57.01
65329;BME280;51941;52.210;5.158;2024-03-29T08:35:29;99123.09;;;12.21;57.62
65329;BME280;51941;52.210;5.158;2024-03-29T08:37:55;99128.72;;;12.31;57.86
65329;BME280;51941;52.210;5.158;2024-03-29T08:40:27;99138.47;;;12.41;57.65
65329;BME280;51941;52.210;5.158;2024-03-29T08:42:55;99149.94;;;12.28;57.84
65329;BME280;51941;52.210;5.158;2024-03-29T08:45:22;99163.00;;;11.97;58.90
65329;BME280;51941;52.210;5.158;2024-03-29T08:47:48;99163.00;;;11.97;58.64
65329;BME280;51941;52.210;5.158;2024-03-29T08:50:15;99158.19;;;12.05;58.96
65329;BME280;51941;52.210;5.158;2024-03-29T08:52:42;99166.03;;;12.16;58.78
65329;BME280;51941;52.210;5.158;2024-03-29T08:55:09;99153.91;;;12.07;59.31
65329;BME280;51941;52.210;5.158;2024-03-29T08:57:38;99160.38;;;12.10;59.52
65329;BME280;51941;52.210;5.158;2024-03-29T09:00:06;99158.03;;;11.96;59.64
65329;BME280;51941;52.210;5.158;2024-03-29T09:02:33;99157.13;;;12.02;59.67
65329;BME280;51941;52.210;5.158;2024-03-29T09:05:00;99157.94;;;11.99;59.67
65329;BME280;51941;52.210;5.158;2024-03-29T09:07:27;99155.25;;;11.99;59.98
65329;BME280;51941;52.210;5.158;2024-03-29T09:09:54;99170.00;;;12.11;59.53
65329;BME280;51941;52.210;5.158;2024-03-29T09:12:21;99162.09;;;12.20;59.58
65329;BME280;51941;52.210;5.158;2024-03-29T09:14:52;99166.47;;;12.14;59.43
65329;BME280;51941;52.210;5.158;2024-03-29T09:17:19;99158.75;;;12.33;59.62
65329;BME280;51941;52.210;5.158;2024-03-29T09:19:49;99166.63;;;12.07;60.30
65329;BME280;51941;52.210;5.158;2024-03-29T09:22:19;99173.19;;;12.06;60.34
65329;BME280;51941;52.210;5.158;2024-03-29T09:24:46;99170.09;;;12.07;59.97
65329;BME280;51941;52.210;5.158;2024-03-29T09:27:13;99180.66;;;12.51;59.36
65329;BME280;51941;52.210;5.158;2024-03-29T09:29:41;99187.06;;;12.57;58.64
65329;BME280;51941;52.210;5.158;2024-03-29T09:32:09;99191.63;;;12.60;58.74
65329;BME280;51941;52.210;5.158;2024-03-29T09:34:36;99195.94;;;13.03;57.98
65329;BME280;51941;52.210;5.158;2024-03-29T09:37:03;99197.44;;;13.04;57.30
65329;BME280;51941;52.210;5.158;2024-03-29T09:39:31;99195.75;;;13.11;56.95
65329;BME280;51941;52.210;5.158;2024-03-29T09:41:58;99195.84;;;12.78;58.02
65329;BME280;51941;52.210;5.158;2024-03-29T09:44:32;99198.00;;;12.83;57.67
65329;BME280;51941;52.210;5.158;2024-03-29T09:47:02;99209.69;;;12.63;58.55
65329;BME280;51941;52.210;5.158;2024-03-29T09:49:31;99206.56;;;12.65;58.52
65329;BME280;51941;52.210;5.158;2024-03-29T09:51:59;99211.22;;;12.64;57.94
65329;BME280;51941;52.210;5.158;2024-03-29T09:54:26;99217.28;;;12.52;57.93
65329;BME280;51941;52.210;5.158;2024-03-29T09:56:54;99223.78;;;12.55;58.22
65329;BME280;51941;52.210;5.158;2024-03-29T09:59:22;99230.38;;;12.54;58.50
65329;BME280;51941;52.210;5.158;2024-03-29T10:01:50;99223.03;;;12.38;58.52
65329;BME280;51941;52.210;5.158;2024-03-29T10:04:18;99227.09;;;12.46;58.83
65329;BME280;51941;52.210;5.158;2024-03-29T10:06:48;99220.06;;;12.49;58.99
65329;BME280;51941;52.210;5.158;2024-03-29T10:09:17;99202.00;;;12.62;58.66
65329;BME280;51941;52.210;5.158;2024-03-29T10:11:44;99204.03;;;12.74;58.03
65329;BME280;51941;52.210;5.158;2024-03-29T10:14:11;99209.16;;;12.85;58.01
65329;BME280;51941;52.210;5.158;2024-03-29T10:16:38;99204.22;;;13.25;57.42
65329;BME280;51941;52.210;5.158;2024-03-29T10:19:07;99202.91;;;13.46;56.65
65329;BME280;51941;52.210;5.158;2024-03-29T10:21:35;99208.53;;;13.52;55.88
65329;BME280;51941;52.210;5.158;2024-03-29T10:24:12;99202.63;;;13.70;56.29
65329;BME280;51941;52.210;5.158;2024-03-29T10:26:40;99203.81;;;13.56;56.29
65329;BME280;51941;52.210;5.158;2024-03-29T10:29:07;99206.94;;;13.68;56.63
65329;BME280;51941;52.210;5.158;2024-03-29T10:31:34;99210.53;;;13.64;55.15
65329;BME280;51941;52.210;5.158;2024-03-29T10:34:02;99211.50;;;13.71;55.44
65329;BME280;51941;52.210;5.158;2024-03-29T10:36:30;99215.75;;;13.84;55.85
65329;BME280;51941;52.210;5.158;2024-03-29T10:39:02;99217.13;;;13.63;55.35
65329;BME280;51941;52.210;5.158;2024-03-29T10:41:32;99223.97;;;13.68;55.40
65329;BME280;51941;52.210;5.158;2024-03-29T10:44:01;99227.03;;;13.96;55.73
65329;BME280;51941;52.210;5.158;2024-03-29T10:46:31;99212.19;;;14.13;54.81
65329;BME280;51941;52.210;5.158;2024-03-29T10:48:58;99215.75;;;14.23;54.45
65329;BME280;51941;52.210;5.158;2024-03-29T10:51:26;99212.41;;;14.19;53.88
65329;BME280;51941;52.210;5.158;2024-03-29T10:53:55;99210.88;;;14.18;53.74
65329;BME280;51941;52.210;5.158;2024-03-29T10:56:24;99217.50;;;14.04;53.92
65329;BME280;51941;52.210;5.158;2024-03-29T10:58:56;99219.13;;;14.27;54.25
65329;BME280;51941;52.210;5.158;2024-03-29T11:01:26;99245.41;;;14.27;54.34
65329;BME280;51941;52.210;5.158;2024-03-29T11:03:54;99238.16;;;14.11;54.09
65329;BME280;51941;52.210;5.158;2024-03-29T11:06:28;99239.56;;;14.02;54.45
65329;BME280;51941;52.210;5.158;2024-03-29T11:08:59;99247.78;;;13.99;54.52
65329;BME280;51941;52.210;5.158;2024-03-29T11:11:28;99260.78;;;13.91;54.58
65329;BME280;51941;52.210;5.158;2024-03-29T11:14:02;99269.13;;;13.97;54.75
65329;BME280;51941;52.210;5.158;2024-03-29T11:16:30;99263.72;;;14.22;54.90
65329;BME280;51941;52.210;5.158;2024-03-29T11:18:57;99251.50;;;14.31;54.37
65329;BME280;51941;52.210;5.158;2024-03-29T11:21:24;99240.53;;;14.34;53.95
65329;BME280;51941;52.210;5.158;2024-03-29T11:23:54;99254.97;;;14.31;54.62
65329;BME280;51941;52.210;5.158;2024-03-29T11:26:23;99255.84;;;14.41;54.05
65329;BME280;51941;52.210;5.158;2024-03-29T11:28:53;99246.03;;;14.69;54.53
65329;BME280;51941;52.210;5.158;2024-03-29T11:31:24;99247.13;;;14.84;53.59
65329;BME280;51941;52.210;5.158;2024-03-29T11:33:51;99247.22;;;14.81;53.51
65329;BME280;51941;52.210;5.158;2024-03-29T11:36:22;99249.09;;;14.84;53.15
65329;BME280;51941;52.210;5.158;2024-03-29T11:38:51;99242.09;;;14.96;52.98
65329;BME280;51941;52.210;5.158;2024-03-29T11:41:19;99233.47;;;15.10;51.34
65329;BME280;51941;52.210;5.158;2024-03-29T11:43:47;99225.78;;;15.09;51.92
65329;BME280;51941;52.210;5.158;2024-03-29T11:46:15;99235.50;;;15.19;51.13
65329;BME280;51941;52.210;5.158;2024-03-29T11:48:44;99233.28;;;15.27;51.85
65329;BME280;51941;52.210;5.158;2024-03-29T11:51:13;99234.38;;;15.29;50.95
65329;BME280;51941;52.210;5.158;2024-03-29T11:53:41;99235.78;;;15.34;50.93
65329;BME280;51941;52.210;5.158;2024-03-29T11:56:08;99243.91;;;15.56;51.25
65329;BME280;51941;52.210;5.158;2024-03-29T11:58:37;99241.13;;;15.69;50.32
65329;BME280;51941;52.210;5.158;2024-03-29T12:01:04;99239.66;;;15.33;49.04
65329;BME280;51941;52.210;5.158;2024-03-29T12:03:32;99249.56;;;15.27;48.94
65329;BME280;51941;52.210;5.158;2024-03-29T12:06:01;99256.41;;;15.31;50.36
65329;BME280;51941;52.210;5.158;2024-03-29T12:08:29;99244.97;;;15.36;50.52
65329;BME280;51941;52.210;5.158;2024-03-29T12:10:57;99256.84;;;15.30;49.58
65329;BME280;51941;52.210;5.158;2024-03-29T12:13:24;99268.13;;;15.28;49.95
65329;BME280;51941;52.210;5.158;2024-03-29T12:15:51;99274.44;;;15.25;50.41
65329;BME280;51941;52.210;5.158;2024-03-29T12:18:19;99269.44;;;15.23;50.81
65329;BME280;51941;52.210;5.158;2024-03-29T12:20:48;99266.78;;;15.33;49.96
65329;BME280;51941;52.210;5.158;2024-03-29T12:23:18;99269.47;;;15.46;50.33
65329;BME280;51941;52.210;5.158;2024-03-29T12:25:47;99262.38;;;15.48;50.13
65329;BME280;51941;52.210;5.158;2024-03-29T12:28:15;99254.38;;;15.44;49.78
65329;BME280;51941;52.210;5.158;2024-03-29T12:30:44;99253.44;;;15.38;49.77
65329;BME280;51941;52.210;5.158;2024-03-29T12:33:12;99260.81;;;15.38;49.83
65329;BME280;51941;52.210;5.158;2024-03-29T12:35:42;99268.72;;;15.45;49.95
65329;BME280;51941;52.210;5.158;2024-03-29T12:38:10;99267.38;;;15.28;49.45
65329;BME280;51941;52.210;5.158;2024-03-29T12:40:41;99260.09;;;15.47;48.95
65329;BME280;51941;52.210;5.158;2024-03-29T12:43:09;99272.88;;;15.37;48.93
65329;BME280;51941;52.210;5.158;2024-03-29T12:45:39;99273.19;;;15.39;49.34
65329;BME280;51941;52.210;5.158;2024-03-29T12:48:09;99272.69;;;15.53;49.38
65329;BME280;51941;52.210;5.158;2024-03-29T12:50:37;99270.50;;;15.70;49.45
65329;BME280;51941;52.210;5.158;2024-03-29T12:53:07;99288.38;;;15.58;49.01
65329;BME280;51941;52.210;5.158;2024-03-29T12:55:34;99278.22;;;15.50;48.30
65329;BME280;51941;52.210;5.158;2024-03-29T12:58:05;99273.75;;;15.56;48.75
65329;BME280;51941;52.210;5.158;2024-03-29T13:00:35;99269.25;;;15.62;49.01
65329;BME280;51941;52.210;5.158;2024-03-29T13:03:02;99261.44;;;15.20;49.85
65329;BME280;51941;52.210;5.158;2024-03-29T13:05:29;99261.69;;;15.35;49.08
65329;BME280;51941;52.210;5.158;2024-03-29T13:08:00;99274.38;;;15.38;49.03
65329;BME280;51941;52.210;5.158;2024-03-29T13:10:26;99280.53;;;15.16;49.04